createdAt,value
2023-04-23T12:06:29.523Z,1.00
2023-04-23T13:58:46.920Z,1.00
2023-04-23T14:31:35.086Z,1.00
2023-04-23T14:35:35.706Z,1.00
2023-04-23T14:42:16.617Z,1.00
2023-04-23T14:45:21.816Z,1.00
2023-04-23T14:48:14.533Z,1.00
2023-04-23T14:54:45.578Z,1.00
2023-04-23T14:57:38.648Z,1.00
2023-04-23T15:01:07.421Z,1.80
2023-04-23T15:03:58.717Z,1.00
2023-04-23T15:06:49.344Z,1.90
2023-04-23T15:09:39.853Z,1.20
2023-04-23T15:12:52.842Z,2.90
2023-04-23T15:15:46.164Z,3.00
2023-04-23T15:18:37.530Z,4.20
2023-04-23T15:21:27.931Z,2.90
2023-04-23T15:24:17.993Z,5.60
2023-04-23T15:27:08.530Z,6.90
2023-04-23T15:30:01.114Z,2.90
2023-04-23T15:32:52.191Z,3.80
2023-04-23T15:35:45.204Z,3.10
2023-04-23T15:38:43.122Z,1.40
2023-04-23T15:41:33.455Z,3.50
2023-04-23T15:44:22.785Z,3.50
2023-04-23T15:50:41.256Z,4.60
2023-04-23T15:53:51.279Z,4.20
2023-04-23T16:05:50.837Z,37.90
2023-04-23T17:49:26.395Z,99.90
2023-04-23T18:08:04.107Z,99.90
2023-04-23T18:43:36.662Z,99.90
2023-04-23T18:46:25.479Z,99.90
2023-04-23T18:49:39.414Z,99.90
2023-04-23T18:52:28.389Z,99.90
2023-04-23T18:55:17.314Z,99.90
2023-04-23T18:58:06.142Z,99.90
2023-04-23T19:21:14.587Z,99.90
2023-04-23T19:32:45.832Z,99.90
2023-04-23T19:35:39.905Z,99.90
2023-04-23T21:44:56.763Z,99.90
2023-04-23T21:47:45.568Z,99.90
2023-04-23T21:50:34.831Z,99.90
2023-04-23T21:53:23.820Z,99.90
2023-04-23T21:56:12.394Z,99.90
2023-04-23T21:59:01.283Z,99.90
2023-04-23T22:30:59.355Z,99.90
2023-04-23T22:33:47.983Z,99.90
2023-04-23T22:36:36.639Z,99.90
2023-04-23T22:39:25.213Z,99.90
2023-04-23T22:42:13.837Z,99.90
2023-04-23T22:45:02.904Z,99.90
2023-04-23T22:47:53.178Z,99.90
2023-04-23T22:50:42.752Z,99.90
2023-04-23T22:53:31.392Z,99.90
2023-04-23T22:56:20.311Z,99.90
2023-04-23T22:59:09.180Z,99.90
2023-04-23T23:01:58.007Z,99.90
2023-04-23T23:04:47.986Z,99.90
2023-04-23T23:07:36.547Z,99.90
2023-04-23T23:10:25.199Z,99.90
2023-04-23T23:13:13.771Z,99.90
2023-04-23T23:16:06.112Z,99.90
2023-04-23T23:18:54.904Z,99.90
2023-04-23T23:21:44.957Z,99.90
2023-04-23T23:24:35.090Z,99.90
2023-04-23T23:27:24.342Z,99.90
2023-04-23T23:30:13.451Z,99.90
2023-04-23T23:33:02.533Z,99.90
2023-04-23T23:35:51.336Z,99.90
2023-04-23T23:38:41.331Z,99.90
2023-04-23T23:41:29.946Z,99.90
2023-04-23T23:48:19.956Z,99.90
2023-04-23T23:51:08.703Z,99.90
2023-04-23T23:53:58.966Z,99.90
2023-04-23T23:56:47.692Z,99.90
2023-04-23T23:59:36.636Z,99.90
